Stations météo

réclame
Mon MeteoGroup
Weeze/Niederrhein, Allemagne (10405): Température de l'air & dewpoint: 15.10.2019 12:00:00 - 21.10.2019 12:00:00 (CEST)Weeze/Niederrhein, Allemagne (10405): Vitesse du vent: 15.10.2019 12:00:00 - 21.10.2019 12:00:00 (CEST)Weeze/Niederrhein, Allemagne (10405): Direction du vent: 15.10.2019 12:00:00 - 21.10.2019 12:00:00 (CEST)Weeze/Niederrhein, Allemagne (10405): visibility: 15.10.2019 12:00:00 - 21.10.2019 12:00:00 (CEST)
Date & Time tt [°C] td [°C] ff [km/h] ff [knt] dd vv [km]
21.10.2019 12:00:00 16,0 14,0 11 6 SSW 10
21.10.2019 11:00:00 15,0 15,0 11 6 S 10
21.10.2019 10:00:00 13,0 13,0 9 5 SE 5
21.10.2019 09:00:00 12,0 12,0 5 3 ESE 2,7
21.10.2019 08:00:00 12,0 12,0 8 4 ESE 1,1
21.10.2019 07:00:00 12,0 12,0 5 3 - 1,8
21.10.2019 06:00:00 12,0 12,0 8 4 E 3,4
21.10.2019 05:00:00 12,0 12,0 4 2 - 4,7
21.10.2019 04:00:00 - - - - - -
21.10.2019 03:00:00 - - - - - -
21.10.2019 02:00:00 - - - - - -
21.10.2019 01:00:00 - - - - - -
21.10.2019 00:00:00 12,0 11,0 8 4 NE 9
20.10.2019 23:00:00 11,0 11,0 11 6 NE 10
20.10.2019 22:00:00 11,0 10,0 9 5 NE 10
20.10.2019 21:00:00 11,0 10,0 8 4 NNE 9
20.10.2019 20:00:00 11,0 11,0 8 4 NNE 10
20.10.2019 19:00:00 11,0 11,0 5 3 - 10
20.10.2019 18:00:00 12,0 11,0 8 4 NE 10
20.10.2019 17:00:00 12,0 11,0 5 3 - 10
20.10.2019 16:00:00 11,0 10,0 5 3 - 10
20.10.2019 15:00:00 12,0 11,0 5 3 - 9
20.10.2019 14:00:00 12,0 12,0 4 2 - 7
20.10.2019 13:00:00 12,0 12,0 5 3 - 7
20.10.2019 12:00:00 12,0 12,0 5 3 SSE 7
20.10.2019 11:00:00 12,0 12,0 2 1 - 10
20.10.2019 10:00:00 11,0 11,0 2 1 - 6
20.10.2019 09:00:00 10,0 10,0 4 2 - 8
20.10.2019 08:00:00 10,0 10,0 5 3 SSE 8
20.10.2019 07:00:00 11,0 10,0 4 2 SE 8
20.10.2019 06:00:00 11,0 10,0 4 2 - 7
20.10.2019 05:00:00 10,0 10,0 5 3 SSE 7
20.10.2019 04:00:00 - - - - - -
20.10.2019 03:00:00 - - - - - -
20.10.2019 02:00:00 - - - - - -
20.10.2019 01:00:00 - - - - - -
20.10.2019 00:00:00 10,0 10,0 8 4 S 10
19.10.2019 23:00:00 11,0 10,0 9 5 S 10
19.10.2019 22:00:00 11,0 10,0 9 5 S 10
19.10.2019 21:00:00 12,0 11,0 9 5 S 10
19.10.2019 20:00:00 12,0 11,0 11 6 S 10
19.10.2019 19:00:00 13,0 11,0 11 6 S 10
19.10.2019 18:00:00 13,0 12,0 11 6 S 10
19.10.2019 17:00:00 14,0 12,0 9 5 S 10
19.10.2019 16:00:00 14,0 12,0 9 5 SSW 10
19.10.2019 15:00:00 14,0 11,0 9 5 SSW 10
19.10.2019 14:00:00 13,0 11,0 15 8 SW 9
19.10.2019 13:00:00 13,0 12,0 16 9 SSW 8
19.10.2019 12:00:00 13,0 12,0 15 8 S 10
19.10.2019 11:00:00 12,0 11,0 16 9 SSE 10
19.10.2019 10:00:00 12,0 11,0 15 8 SSE 10
19.10.2019 09:00:00 11,0 10,0 13 7 SSE 10
19.10.2019 08:00:00 11,0 10,0 13 7 SSE 10
19.10.2019 07:00:00 11,0 9,0 13 7 SSE 10
19.10.2019 06:00:00 11,0 9,0 15 8 S 10
19.10.2019 05:00:00 12,0 9,0 16 9 S 10
19.10.2019 04:00:00 - - - - - -
19.10.2019 03:00:00 - - - - - -
19.10.2019 02:00:00 - - - - - -
19.10.2019 01:00:00 - - - - - -
19.10.2019 00:00:00 11,0 8,0 16 9 S 10
18.10.2019 23:00:00 11,0 8,0 13 7 S 10
18.10.2019 22:00:00 11,0 8,0 15 8 S 10
18.10.2019 21:00:00 12,0 8,0 16 9 S 10
18.10.2019 20:00:00 11,0 8,0 15 8 S 10
18.10.2019 19:00:00 11,0 8,0 9 5 SSW 10
18.10.2019 18:00:00 14,0 8,0 18 10 SW 10
18.10.2019 17:00:00 15,0 8,0 24 13 SW 10
18.10.2019 16:00:00 14,0 8,0 28 15 SW 10
18.10.2019 15:00:00 14,0 9,0 26 14 SW 10
18.10.2019 14:00:00 13,0 9,0 24 13 SSW 10
18.10.2019 13:00:00 12,0 9,0 22 12 SSW 10
18.10.2019 12:00:00 13,0 12,0 28 15 SSW 10
18.10.2019 11:00:00 15,0 12,0 21 11 S 10
18.10.2019 10:00:00 14,0 13,0 16 9 S 10
18.10.2019 09:00:00 13,0 12,0 15 8 S 10
18.10.2019 08:00:00 13,0 12,0 15 8 S 10
18.10.2019 07:00:00 13,0 12,0 15 8 S 10
18.10.2019 06:00:00 13,0 12,0 15 8 SSE 10
18.10.2019 05:00:00 13,0 12,0 15 8 S 10
18.10.2019 04:00:00 - - - - - -
18.10.2019 03:00:00 - - - - - -
18.10.2019 02:00:00 - - - - - -
18.10.2019 01:00:00 - - - - - -
18.10.2019 00:00:00 13,0 13,0 9 5 S 10
17.10.2019 23:00:00 13,0 12,0 9 5 S 10
17.10.2019 22:00:00 13,0 13,0 9 5 SSW 10
17.10.2019 21:00:00 13,0 13,0 9 5 S 10
17.10.2019 20:00:00 13,0 13,0 8 4 WSW 7
17.10.2019 19:00:00 13,0 13,0 4 2 - 5
17.10.2019 18:00:00 13,0 13,0 8 4 SSE 4,9
17.10.2019 17:00:00 14,0 12,0 8 4 S 5
17.10.2019 16:00:00 15,0 12,0 15 8 S 10
17.10.2019 15:00:00 16,0 11,0 16 9 SSW 10
17.10.2019 14:00:00 16,0 12,0 16 9 SSW 10
17.10.2019 13:00:00 15,0 13,0 11 6 SSW 9
17.10.2019 12:00:00 14,0 13,0 11 6 WSW 10
17.10.2019 11:00:00 14,0 13,0 15 8 WSW 9
17.10.2019 10:00:00 14,0 13,0 11 6 W 5
17.10.2019 09:00:00 14,0 13,0 15 8 SW 3,0
17.10.2019 08:00:00 14,0 13,0 15 8 SSW 10
17.10.2019 07:00:00 14,0 13,0 15 8 SSW 10
17.10.2019 06:00:00 14,0 13,0 16 9 SSW 10
17.10.2019 05:00:00 14,0 13,0 15 8 SSW 10
17.10.2019 04:00:00 - - - - - -
17.10.2019 03:00:00 - - - - - -
17.10.2019 02:00:00 - - - - - -
17.10.2019 01:00:00 - - - - - -
17.10.2019 00:00:00 14,0 13,0 16 9 S 9
16.10.2019 23:00:00 14,0 13,0 18 10 S 9
16.10.2019 22:00:00 14,0 13,0 15 8 SSW 6
16.10.2019 21:00:00 14,0 13,0 18 10 SSW 8
16.10.2019 20:00:00 14,0 13,0 16 9 S 9
16.10.2019 19:00:00 14,0 13,0 16 9 S 6
16.10.2019 18:00:00 15,0 13,0 16 9 SSW 10
16.10.2019 17:00:00 14,0 14,0 15 8 S 10
16.10.2019 16:00:00 14,0 13,0 16 9 S 5
16.10.2019 15:00:00 14,0 13,0 16 9 S 10
16.10.2019 14:00:00 14,0 12,0 18 10 S 10
16.10.2019 13:00:00 14,0 12,0 15 8 S 10
16.10.2019 12:00:00 15,0 11,0 16 9 S 10
16.10.2019 11:00:00 14,0 11,0 16 9 S 10
16.10.2019 10:00:00 12,0 11,0 13 7 S 10
16.10.2019 09:00:00 11,0 11,0 9 5 S 10
16.10.2019 08:00:00 12,0 11,0 11 6 S 10
16.10.2019 07:00:00 11,0 10,0 13 7 SSW 10
16.10.2019 06:00:00 11,0 10,0 11 6 SSW 10
16.10.2019 05:00:00 12,0 11,0 13 7 SSW 10
16.10.2019 04:00:00 - - - - - -
16.10.2019 03:00:00 - - - - - -
16.10.2019 02:00:00 - - - - - -
16.10.2019 01:00:00 - - - - - -
16.10.2019 00:00:00 14,0 13,0 13 7 SW 9
15.10.2019 23:00:00 14,0 13,0 11 6 SW 6
15.10.2019 22:00:00 14,0 14,0 11 6 SSW 5
15.10.2019 21:00:00 14,0 14,0 9 5 SSW 5
15.10.2019 20:00:00 14,0 14,0 9 5 S 7
15.10.2019 19:00:00 14,0 14,0 8 4 SSW 8
15.10.2019 18:00:00 15,0 14,0 13 7 SW 10
15.10.2019 17:00:00 16,0 14,0 13 7 SW 10
15.10.2019 16:00:00 16,0 14,0 11 6 S 9
15.10.2019 15:00:00 16,0 14,0 9 5 SW 10
15.10.2019 14:00:00 16,0 15,0 15 8 SW 10
15.10.2019 13:00:00 16,0 14,0 11 6 SW 10
15.10.2019 12:00:00 17,0 15,0 11 6 S 10

tt = Température de l'air
td = dewpoint
ff = Vitesse du vent
dd = Direction du vent
vv = visibility

stations d'obs. à proximité